Time;durP1;ratioP1;P1;durP2;ratioP2;P2;SDS_P1;SDS_P2;PMS_P1;PMS_P2;Temp;Humidity;BMP_temperature;BMP_pressure;BME280_temperature;BME280_humidity;BME280_pressure;Samples;Min_cycle;Max_cycle;Signal;HPM_P1;HPM_P2
2023/10/04 09:54:20;;;;;;;4.32;1.95;;;20.50;62.50;;;;;;5053917;27;21157;-50
2023/10/04 09:56:47;;;;;;;5.90;2.88;;;20.50;63.40;;;;;;5037422;28;20034;-51
2023/10/04 09:59:17;;;;;;;3.67;1.92;;;20.40;63.60;;;;;;5037286;28;20390;-51
2023/10/04 10:01:43;;;;;;;6.50;2.00;;;20.50;63.70;;;;;;5030383;28;20634;-54
2023/10/04 10:04:16;;;;;;;4.25;2.13;;;20.50;63.80;;;;;;5029286;28;20033;-49
2023/10/04 10:07:00;;;;;;;3.38;2.08;;;20.50;64.00;;;;;;5031623;28;20033;-48
2023/10/04 10:09:29;;;;;;;3.67;2.10;;;20.40;64.00;;;;;;5031135;28;20025;-50
2023/10/04 10:11:57;;;;;;;5.47;2.47;;;20.50;63.20;;;;;;5018226;28;20022;-51
2023/10/04 10:14:26;;;;;;;4.10;2.00;;;20.40;64.00;;;;;;5028225;28;20622;-51
2023/10/04 10:16:54;;;;;;;3.53;2.30;;;20.40;64.10;;;;;;5044591;28;20034;-50
2023/10/04 10:19:23;;;;;;;7.00;2.42;;;20.40;64.10;;;;;;5033189;28;20036;-49
2023/10/04 10:22:03;;;;;;;4.70;2.28;;;20.40;64.00;;;;;;5041302;28;20075;-48
2023/10/04 10:24:28;;;;;;;2.80;1.73;;;20.40;64.20;;;;;;5040379;28;20030;-50
2023/10/04 10:27:08;;;;;;;3.70;2.10;;;20.40;64.00;;;;;;5031723;28;20035;-48
2023/10/04 10:29:36;;;;;;;3.83;1.92;;;20.40;63.80;;;;;;5042729;28;20119;-52
2023/10/04 10:32:06;;;;;;;3.75;1.90;;;20.40;63.90;;;;;;5035238;28;20048;-49
2023/10/04 10:34:32;;;;;;;2.88;1.63;;;20.40;63.60;;;;;;5037926;28;20026;-51
2023/10/04 10:37:15;;;;;;;2.13;1.60;;;20.30;63.20;;;;;;5030554;28;20052;-51
2023/10/04 10:39:52;;;;;;;5.15;2.00;;;20.30;63.20;;;;;;5030246;28;20022;-50
2023/10/04 10:42:18;;;;;;;3.85;2.08;;;20.40;63.30;;;;;;5037074;28;20033;-50
2023/10/04 10:44:45;;;;;;;2.92;1.52;;;20.30;63.20;;;;;;5042258;28;20060;-52
2023/10/04 10:47:17;;;;;;;4.72;1.98;;;20.30;62.90;;;;;;5031917;28;20048;-49
2023/10/04 10:49:55;;;;;;;4.15;2.03;;;20.30;62.60;;;;;;5039696;28;20133;-53
2023/10/04 10:52:38;;;;;;;4.10;2.08;;;20.30;63.30;;;;;;5042990;28;20120;-50
2023/10/04 10:55:06;;;;;;;4.22;2.30;;;20.30;63.40;;;;;;5027101;28;20175;-51
2023/10/04 10:57:33;;;;;;;3.38;1.65;;;20.30;62.40;;;;;;5037486;28;20033;-51
2023/10/04 11:00:07;;;;;;;2.88;1.60;;;20.30;63.10;;;;;;5042789;28;20030;-52
2023/10/04 11:02:33;;;;;;;4.07;1.83;;;20.30;63.30;;;;;;5034818;28;20030;-55
2023/10/04 11:04:58;;;;;;;2.28;1.65;;;20.30;63.30;;;;;;5031276;28;20106;-54
2023/10/04 11:07:26;;;;;;;4.57;1.90;;;20.30;63.30;;;;;;5007366;28;20021;-51
2023/10/04 11:09:55;;;;;;;3.22;1.98;;;20.30;63.20;;;;;;5015396;28;20083;-50
2023/10/04 11:12:21;;;;;;;3.58;2.42;;;20.30;62.50;;;;;;5018470;28;20061;-50
2023/10/04 11:14:48;;;;;;;5.32;1.90;;;20.30;63.00;;;;;;5014472;28;20080;-50
2023/10/04 11:17:16;;;;;;;2.40;1.70;;;20.30;63.10;;;;;;5030848;28;20033;-52
2023/10/04 11:19:44;;;;;;;2.78;1.50;;;20.40;63.10;;;;;;5030601;28;20026;-51
2023/10/04 11:22:11;;;;;;;2.55;1.70;;;20.30;62.70;;;;;;5030456;28;20873;-51
2023/10/04 11:24:39;;;;;;;2.63;1.65;;;20.30;63.10;;;;;;5009393;28;20088;-50
2023/10/04 11:27:09;;;;;;;3.45;1.70;;;20.30;62.80;;;;;;5019909;28;20493;-54
2023/10/04 11:29:35;;;;;;;3.42;1.80;;;20.30;63.00;;;;;;5028999;28;20034;-49
2023/10/04 11:32:01;;;;;;;2.88;1.75;;;20.30;63.10;;;;;;5022467;28;20550;-51
2023/10/04 11:34:28;;;;;;;3.50;1.90;;;20.30;63.20;;;;;;5015633;28;20026;-51
2023/10/04 11:37:01;;;;;;;2.28;1.30;;;20.30;64.00;;;;;;5018506;28;21377;-51
2023/10/04 11:39:33;;;;;;;2.70;2.15;;;20.30;62.90;;;;;;5017636;28;20038;-51
2023/10/04 11:42:00;;;;;;;2.63;1.88;;;20.30;62.50;;;;;;5013607;28;21253;-51
2023/10/04 11:44:25;;;;;;;3.08;2.03;;;20.30;63.00;;;;;;5028752;28;20079;-50
2023/10/04 11:47:03;;;;;;;4.55;1.92;;;20.30;62.50;;;;;;5027939;28;20028;-50
2023/10/04 11:49:32;;;;;;;3.05;1.60;;;20.30;62.20;;;;;;5014133;28;20033;-51
2023/10/04 11:51:59;;;;;;;2.22;1.73;;;20.30;62.90;;;;;;5026934;28;20025;-50
2023/10/04 11:54:44;;;;;;;4.07;1.60;;;20.30;63.00;;;;;;5010767;28;20025;-50
2023/10/04 11:57:10;;;;;;;1.80;1.27;;;20.30;62.90;;;;;;5009906;28;20033;-53
2023/10/04 11:59:35;;;;;;;3.33;1.70;;;20.30;63.10;;;;;;5015062;28;20743;-53
2023/10/04 12:02:02;;;;;;;4.38;2.17;;;20.30;62.90;;;;;;4997589;28;20029;-52
2023/10/04 12:04:32;;;;;;;4.78;2.15;;;20.30;62.70;;;;;;5026562;28;20017;-51
2023/10/04 12:07:03;;;;;;;2.80;1.52;;;20.30;63.10;;;;;;5025228;28;20021;-54
2023/10/04 12:09:31;;;;;;;2.25;1.40;;;20.30;63.10;;;;;;5029139;28;20163;-49
2023/10/04 12:11:57;;;;;;;2.17;1.48;;;20.30;63.10;;;;;;5028915;28;20045;-51
2023/10/04 12:14:23;;;;;;;3.00;1.90;;;20.30;63.20;;;;;;5014691;28;20026;-50
2023/10/04 12:16:50;;;;;;;3.20;1.70;;;20.30;62.90;;;;;;5021050;28;20037;-50
2023/10/04 12:19:16;;;;;;;2.42;1.50;;;20.30;63.20;;;;;;5033373;28;20029;-49
2023/10/04 12:21:43;;;;;;;3.00;1.75;;;20.30;63.20;;;;;;5012451;28;20025;-51
2023/10/04 12:24:09;;;;;;;3.10;1.85;;;20.30;62.90;;;;;;5012335;28;20088;-51
2023/10/04 12:26:36;;;;;;;5.43;1.73;;;20.30;63.20;;;;;;5018199;28;20588;-50
2023/10/04 12:29:02;;;;;;;4.43;1.73;;;20.30;63.40;;;;;;5018105;28;20030;-50
2023/10/04 12:31:28;;;;;;;3.90;1.95;;;20.30;63.00;;;;;;4997948;28;20032;-51
2023/10/04 12:33:55;;;;;;;3.53;2.17;;;20.30;63.10;;;;;;5027261;28;20116;-50
2023/10/04 12:36:25;;;;;;;4.35;1.95;;;20.30;62.90;;;;;;5026597;28;20041;-51
2023/10/04 12:38:51;;;;;;;4.00;2.08;;;20.30;63.00;;;;;;5027297;28;20045;-48
2023/10/04 12:41:17;;;;;;;3.55;1.70;;;20.30;63.20;;;;;;5025170;28;20399;-49
2023/10/04 12:43:42;;;;;;;3.47;1.90;;;20.30;63.00;;;;;;5020726;28;20037;-50
2023/10/04 12:46:08;;;;;;;2.13;1.73;;;20.30;63.00;;;;;;5034387;28;20055;-51
2023/10/04 12:48:33;;;;;;;3.88;2.10;;;20.30;63.10;;;;;;5020931;28;20576;-51
2023/10/04 12:50:59;;;;;;;3.75;1.50;;;20.30;63.30;;;;;;5009174;28;20034;-54
2023/10/04 12:53:25;;;;;;;3.58;1.92;;;20.30;63.30;;;;;;5015196;28;20045;-50
2023/10/04 12:55:51;;;;;;;3.25;1.75;;;20.30;63.70;;;;;;5010919;28;20034;-51
2023/10/04 12:58:19;;;;;;;4.50;1.90;;;20.30;63.80;;;;;;5022046;28;20048;-49
2023/10/04 13:00:46;;;;;;;4.40;1.80;;;20.40;63.90;;;;;;5025774;28;20035;-50
2023/10/04 13:03:12;;;;;;;2.25;1.25;;;20.40;64.10;;;;;;5022353;28;20060;-47
2023/10/04 13:05:38;;;;;;;5.28;1.80;;;20.40;64.40;;;;;;5019786;28;20715;-50
2023/10/04 13:08:09;;;;;;;5.25;1.73;;;20.40;64.10;;;;;;5022265;28;20028;-48
2023/10/04 13:10:39;;;;;;;2.22;1.63;;;20.40;64.30;;;;;;5016374;28;20034;-50
2023/10/04 13:13:07;;;;;;;2.75;2.03;;;20.40;63.60;;;;;;5010564;28;20057;-54
2023/10/04 13:15:33;;;;;;;3.42;1.83;;;20.40;64.10;;;;;;5014294;28;20041;-59
2023/10/04 13:17:58;;;;;;;12.68;1.90;;;20.40;64.40;;;;;;5017211;28;20109;-51
2023/10/04 13:20:27;;;;;;;3.10;1.67;;;20.50;64.90;;;;;;5021693;28;20041;-56
2023/10/04 13:22:54;;;;;;;6.68;2.10;;;20.50;64.50;;;;;;5020108;28;20028;-54
2023/10/04 13:25:20;;;;;;;7.63;2.28;;;20.50;65.30;;;;;;5024768;28;20056;-55
2023/10/04 13:27:46;;;;;;;7.88;2.15;;;20.60;65.60;;;;;;5014694;28;20051;-50
2023/10/04 13:30:14;;;;;;;8.30;2.17;;;20.70;65.50;;;;;;5016153;28;20029;-49
2023/10/04 13:32:39;;;;;;;6.22;1.98;;;20.80;65.60;;;;;;5016215;28;20542;-51
2023/10/04 13:35:06;;;;;;;10.23;2.58;;;20.80;65.00;;;;;;5018165;28;20179;-52
2023/10/04 13:37:32;;;;;;;3.75;1.95;;;20.80;65.10;;;;;;5013996;28;20113;-50
2023/10/04 13:39:57;;;;;;;5.70;2.15;;;20.80;64.80;;;;;;5025090;28;20025;-49
2023/10/04 13:42:24;;;;;;;5.40;1.90;;;20.80;64.80;;;;;;5021890;28;20036;-49
2023/10/04 13:44:49;;;;;;;2.67;1.60;;;20.80;65.10;;;;;;5022689;28;20033;-50
2023/10/04 13:47:16;;;;;;;6.57;2.35;;;20.70;64.80;;;;;;5029800;28;20030;-50
2023/10/04 13:49:42;;;;;;;5.40;1.85;;;20.70;65.20;;;;;;5008248;28;20025;-49
2023/10/04 13:52:08;;;;;;;4.10;1.50;;;20.80;64.90;;;;;;5009033;28;20037;-51
2023/10/04 13:54:34;;;;;;;5.90;1.85;;;20.70;65.40;;;;;;5009973;28;20037;-51
2023/10/04 13:56:59;;;;;;;4.50;1.92;;;20.80;65.50;;;;;;5016460;28;20538;-48
2023/10/04 13:59:28;;;;;;;4.20;2.03;;;20.80;65.40;;;;;;5027666;28;20049;-51
2023/10/04 14:01:54;;;;;;;7.20;2.72;;;20.80;65.00;;;;;;5014654;28;20490;-50
2023/10/04 14:04:20;;;;;;;3.95;2.03;;;20.70;64.70;;;;;;5024623;28;20048;-50
2023/10/04 14:06:46;;;;;;;4.38;1.92;;;20.70;64.80;;;;;;5018368;28;20030;-51
2023/10/04 14:09:14;;;;;;;2.65;1.88;;;20.70;64.70;;;;;;5028890;28;20027;-49
2023/10/04 14:11:40;;;;;;;3.92;1.52;;;20.60;64.70;;;;;;5026680;28;20041;-51
2023/10/04 14:14:07;;;;;;;4.93;2.17;;;20.60;64.50;;;;;;5024775;28;20067;-52
2023/10/04 14:16:34;;;;;;;3.72;1.88;;;20.60;64.00;;;;;;5018541;28;20056;-52
2023/10/04 14:19:00;;;;;;;5.72;2.13;;;20.60;64.50;;;;;;5018873;28;20038;-48
2023/10/04 14:21:26;;;;;;;2.47;1.70;;;20.60;63.20;;;;;;5013716;28;20516;-52
2023/10/04 14:23:52;;;;;;;3.75;1.67;;;20.60;64.30;;;;;;5024502;28;20482;-51
2023/10/04 14:26:18;;;;;;;2.63;1.60;;;20.60;64.50;;;;;;5024106;28;20037;-50
2023/10/04 14:28:44;;;;;;;3.35;1.45;;;20.60;64.10;;;;;;5013544;28;20624;-48
2023/10/04 14:31:11;;;;;;;4.20;1.80;;;20.60;64.40;;;;;;5019527;28;20056;-50
2023/10/04 14:33:39;;;;;;;4.57;2.10;;;20.60;64.30;;;;;;5009956;28;20050;-48
2023/10/04 14:36:05;;;;;;;2.78;1.85;;;20.60;63.80;;;;;;5009016;28;20565;-50
2023/10/04 14:38:30;;;;;;;2.83;1.60;;;20.60;64.30;;;;;;5024586;28;20029;-50
2023/10/04 14:40:57;;;;;;;2.55;1.75;;;20.60;64.10;;;;;;5029229;28;20052;-51
2023/10/04 14:43:23;;;;;;;2.42;1.75;;;20.60;64.20;;;;;;5035996;28;20112;-50
2023/10/04 14:45:51;;;;;;;4.10;2.15;;;20.50;64.00;;;;;;5028225;28;20061;-50
2023/10/04 14:48:17;;;;;;;3.60;1.83;;;20.50;63.30;;;;;;5019050;28;20052;-51
2023/10/04 14:50:43;;;;;;;4.75;2.15;;;20.60;64.20;;;;;;5021778;28;20043;-48
2023/10/04 14:53:09;;;;;;;3.08;1.90;;;20.50;63.90;;;;;;5045943;28;20049;-50
2023/10/04 14:55:34;;;;;;;4.80;2.30;;;20.50;64.00;;;;;;5024766;28;20048;-51
2023/10/04 14:58:00;;;;;;;4.47;2.08;;;20.60;64.00;;;;;;5030275;28;20029;-51
2023/10/04 15:00:27;;;;;;;3.97;1.77;;;20.60;64.00;;;;;;5020128;28;20572;-50
2023/10/04 15:02:56;;;;;;;2.65;1.60;;;20.50;63.90;;;;;;5021563;28;20033;-48
2023/10/04 15:05:22;;;;;;;3.55;1.80;;;20.50;63.70;;;;;;5019290;28;20800;-50
2023/10/04 15:07:48;;;;;;;4.55;1.80;;;20.50;63.90;;;;;;5017322;28;20071;-51
2023/10/04 15:10:18;;;;;;;3.42;1.80;;;20.60;63.90;;;;;;5026771;28;20025;-48
2023/10/04 15:12:45;;;;;;;3.55;2.03;;;20.60;63.90;;;;;;5033069;28;20056;-49
2023/10/04 15:15:11;;;;;;;3.80;1.70;;;20.50;63.80;;;;;;5021914;28;20527;-49
2023/10/04 15:17:38;;;;;;;3.03;1.85;;;20.50;63.80;;;;;;5025531;28;20251;-50
2023/10/04 15:20:05;;;;;;;3.17;2.00;;;20.50;63.80;;;;;;5023364;28;20030;-51
2023/10/04 15:22:35;;;;;;;3.58;2.13;;;20.50;63.80;;;;;;5009996;28;20017;-52
2023/10/04 15:25:07;;;;;;;2.38;1.55;;;20.50;63.80;;;;;;5019318;28;20199;-47
2023/10/04 15:27:38;;;;;;;4.00;1.92;;;20.50;63.70;;;;;;5031597;28;20025;-53
2023/10/04 15:30:05;;;;;;;3.58;2.42;;;20.50;63.80;;;;;;5019682;28;20057;-53
2023/10/04 15:32:32;;;;;;;2.75;1.85;;;20.50;63.80;;;;;;5026054;28;20204;-49
2023/10/04 15:34:59;;;;;;;3.58;1.65;;;20.50;63.80;;;;;;5027189;28;20570;-47
2023/10/04 15:37:24;;;;;;;3.45;1.90;;;20.50;63.60;;;;;;5028927;28;20474;-49
2023/10/04 15:39:50;;;;;;;5.20;1.70;;;20.50;63.70;;;;;;5027137;28;20026;-51
2023/10/04 15:42:16;;;;;;;2.38;1.52;;;20.50;63.70;;;;;;5019296;28;20040;-50
2023/10/04 15:44:41;;;;;;;2.65;1.70;;;20.50;63.70;;;;;;5024232;28;20033;-50
2023/10/04 15:47:07;;;;;;;2.92;1.85;;;20.50;63.70;;;;;;5020401;28;20028;-50
2023/10/04 15:49:34;;;;;;;3.50;2.03;;;20.50;63.70;;;;;;5009569;28;20030;-51
2023/10/04 15:52:00;;;;;;;4.20;2.40;;;20.40;63.50;;;;;;5025290;28;20570;-51
2023/10/04 15:54:26;;;;;;;4.07;1.70;;;20.40;63.70;;;;;;5019369;28;20036;-51
2023/10/04 15:56:52;;;;;;;3.70;2.03;;;20.40;63.60;;;;;;5033123;28;20047;-50
2023/10/04 15:59:17;;;;;;;4.13;2.20;;;20.40;63.70;;;;;;5027023;28;20411;-52
2023/10/04 16:01:43;;;;;;;3.70;2.15;;;20.40;63.40;;;;;;5021184;28;20034;-52
2023/10/04 16:04:11;;;;;;;2.92;1.60;;;20.40;63.30;;;;;;5021305;28;20044;-52
2023/10/04 16:06:38;;;;;;;3.22;1.77;;;20.40;63.10;;;;;;5031326;28;20034;-50
2023/10/04 16:09:04;;;;;;;2.78;1.73;;;20.30;63.10;;;;;;5026414;28;20121;-49
2023/10/04 16:11:29;;;;;;;3.70;2.10;;;20.30;62.90;;;;;;5033289;28;20033;-49
2023/10/04 16:13:55;;;;;;;2.42;1.70;;;20.30;63.10;;;;;;5016225;28;20788;-47
2023/10/04 16:16:21;;;;;;;4.57;1.85;;;20.30;63.70;;;;;;5013769;28;20483;-51
2023/10/04 16:18:47;;;;;;;2.35;1.80;;;20.30;63.10;;;;;;5028185;28;20048;-52
2023/10/04 16:21:17;;;;;;;2.55;1.70;;;20.30;63.40;;;;;;5029215;28;20055;-52
2023/10/04 16:23:42;;;;;;;3.78;2.15;;;20.20;63.20;;;;;;5021269;28;20037;-52
2023/10/04 16:26:13;;;;;;;4.22;2.22;;;20.20;63.00;;;;;;5033362;28;20088;-56
2023/10/04 16:28:39;;;;;;;3.42;2.00;;;20.20;63.00;;;;;;5020525;28;20033;-49
2023/10/04 16:31:04;;;;;;;3.92;1.58;;;20.20;63.20;;;;;;5028221;28;20032;-54
2023/10/04 16:33:30;;;;;;;4.22;2.28;;;20.20;63.20;;;;;;5019647;28;20035;-53
2023/10/04 16:35:56;;;;;;;4.82;1.85;;;20.20;63.10;;;;;;5027879;28;20617;-54
2023/10/04 16:38:21;;;;;;;3.38;2.13;;;20.20;63.10;;;;;;5022072;28;20060;-59
2023/10/04 16:40:47;;;;;;;4.85;2.03;;;20.10;63.20;;;;;;5022686;28;20045;-47
2023/10/04 16:43:13;;;;;;;3.80;1.98;;;20.20;63.00;;;;;;5019607;28;20107;-51
2023/10/04 16:45:39;;;;;;;2.72;1.80;;;20.10;63.10;;;;;;5029333;28;20116;-51
2023/10/04 16:48:05;;;;;;;4.65;1.98;;;20.10;63.20;;;;;;5012826;28;20125;-49
2023/10/04 16:50:30;;;;;;;2.97;1.50;;;20.10;63.40;;;;;;5029120;28;20033;-51
2023/10/04 16:52:56;;;;;;;4.00;2.00;;;20.20;63.80;;;;;;5023408;28;20700;-49
2023/10/04 16:55:21;;;;;;;3.80;2.17;;;20.20;63.70;;;;;;5031885;28;20029;-50
2023/10/04 16:57:48;;;;;;;3.58;1.83;;;20.20;63.70;;;;;;5007092;28;20663;-49
2023/10/04 17:00:17;;;;;;;3.50;2.08;;;20.30;63.80;;;;;;5009715;28;20065;-49
2023/10/04 17:02:43;;;;;;;4.53;2.08;;;20.20;63.60;;;;;;5024317;28;20517;-52
2023/10/04 17:05:09;;;;;;;3.53;1.83;;;20.20;63.50;;;;;;5029056;28;20041;-51
2023/10/04 17:07:35;;;;;;;5.28;2.05;;;20.20;63.30;;;;;;5029967;28;20028;-50
2023/10/04 17:10:00;;;;;;;3.88;2.15;;;20.20;63.10;;;;;;5031087;28;20437;-51
2023/10/04 17:12:26;;;;;;;3.83;1.90;;;20.20;63.10;;;;;;5019181;28;20034;-53
2023/10/04 17:14:52;;;;;;;3.58;2.05;;;20.10;63.20;;;;;;5013278;28;20046;-56
2023/10/04 17:17:20;;;;;;;2.15;1.80;;;20.10;63.00;;;;;;5027878;28;20037;-52
2023/10/04 17:19:48;;;;;;;3.33;2.10;;;20.10;63.10;;;;;;5028848;28;20038;-50
2023/10/04 17:22:14;;;;;;;3.97;2.58;;;20.10;63.10;;;;;;5027089;28;20546;-53
2023/10/04 17:24:39;;;;;;;2.88;1.90;;;20.10;63.10;;;;;;5030105;28;20033;-48
2023/10/04 17:27:05;;;;;;;4.68;1.83;;;20.10;63.10;;;;;;5019550;28;20485;-49
2023/10/04 17:29:31;;;;;;;3.40;2.20;;;20.00;63.00;;;;;;5021546;28;20033;-48
2023/10/04 17:31:59;;;;;;;2.63;1.90;;;20.10;63.10;;;;;;5025735;28;20017;-50
2023/10/04 17:34:25;;;;;;;3.20;2.03;;;20.10;63.00;;;;;;5020643;28;20410;-53
2023/10/04 17:36:50;;;;;;;5.00;1.85;;;20.00;63.20;;;;;;5010968;28;20030;-51
2023/10/04 17:39:16;;;;;;;4.53;1.98;;;20.00;63.10;;;;;;5024934;28;20033;-52
2023/10/04 17:41:42;;;;;;;3.00;2.15;;;20.00;63.20;;;;;;5026096;28;20032;-52
2023/10/04 17:44:07;;;;;;;3.38;2.20;;;20.00;62.80;;;;;;5016891;28;20057;-51
2023/10/04 17:46:35;;;;;;;4.15;1.90;;;20.00;63.30;;;;;;5040709;28;20033;-53
2023/10/04 17:49:00;;;;;;;3.17;2.00;;;20.00;63.00;;;;;;5019559;28;20032;-53
2023/10/04 17:51:26;;;;;;;2.85;2.28;;;20.00;63.00;;;;;;5020994;28;20045;-52
2023/10/04 17:53:52;;;;;;;4.47;2.45;;;20.00;62.80;;;;;;5026526;28;20486;-55
2023/10/04 17:56:17;;;;;;;5.95;2.38;;;20.00;63.40;;;;;;5033071;28;20029;-52
2023/10/04 17:58:43;;;;;;;4.15;2.72;;;20.00;63.40;;;;;;5017154;28;20036;-48
2023/10/04 18:01:11;;;;;;;2.50;1.70;;;20.10;63.60;;;;;;5016927;28;20033;-51
2023/10/04 18:03:37;;;;;;;3.88;1.70;;;20.00;63.50;;;;;;5013253;28;20033;-49
2023/10/04 18:06:04;;;;;;;3.78;2.55;;;20.10;63.60;;;;;;5015231;28;20387;-52
2023/10/04 18:08:30;;;;;;;2.47;1.95;;;20.10;63.50;;;;;;5018602;28;20037;-50
2023/10/04 18:10:55;;;;;;;4.72;2.10;;;20.10;63.60;;;;;;5030740;28;20111;-49
2023/10/04 18:13:21;;;;;;;3.40;2.28;;;20.10;63.40;;;;;;5023184;28;20040;-51
2023/10/04 18:15:47;;;;;;;4.10;2.00;;;20.10;63.60;;;;;;5031101;28;20029;-48
2023/10/04 18:18:13;;;;;;;4.13;1.70;;;20.10;63.50;;;;;;5024112;28;20047;-51
2023/10/04 18:20:39;;;;;;;2.60;1.65;;;20.10;63.50;;;;;;5023741;28;20133;-49
2023/10/04 18:23:08;;;;;;;3.45;2.15;;;20.10;63.60;;;;;;5015191;28;20076;-48
2023/10/04 18:25:33;;;;;;;3.40;2.20;;;20.10;63.70;;;;;;5024321;28;20030;-49
2023/10/04 18:27:59;;;;;;;3.85;1.95;;;20.10;63.60;;;;;;5016032;28;20047;-50
2023/10/04 18:30:25;;;;;;;5.15;2.28;;;20.10;63.70;;;;;;5021665;28;20427;-52
2023/10/04 18:32:51;;;;;;;2.22;1.67;;;20.10;63.70;;;;;;5028362;28;20461;-47
2023/10/04 18:35:17;;;;;;;3.40;2.30;;;20.10;63.60;;;;;;5023864;28;20523;-51
2023/10/04 18:37:43;;;;;;;3.53;2.25;;;20.10;63.60;;;;;;5032987;28;20182;-49
2023/10/04 18:40:09;;;;;;;2.83;1.90;;;20.10;63.60;;;;;;5026469;28;20052;-47
2023/10/04 18:42:36;;;;;;;3.60;2.28;;;20.10;63.50;;;;;;5027254;28;20029;-49
2023/10/04 18:45:06;;;;;;;3.03;2.25;;;20.10;63.60;;;;;;5010402;28;20069;-48
2023/10/04 18:47:32;;;;;;;3.38;1.90;;;20.10;63.80;;;;;;5024328;28;20029;-50
2023/10/04 18:49:58;;;;;;;3.17;1.45;;;20.10;63.70;;;;;;5037592;28;20075;-49
2023/10/04 18:52:24;;;;;;;2.70;1.90;;;20.10;63.80;;;;;;5022028;28;20037;-49
2023/10/04 18:54:49;;;;;;;3.33;2.13;;;20.10;63.70;;;;;;5024783;28;20029;-48
2023/10/04 18:57:15;;;;;;;3.25;1.63;;;20.10;63.60;;;;;;5025404;28;20038;-52
2023/10/04 18:59:41;;;;;;;2.88;2.05;;;20.10;63.80;;;;;;5008247;28;20022;-52
2023/10/04 19:02:07;;;;;;;3.00;1.92;;;20.10;63.80;;;;;;5017336;28;20034;-54
2023/10/04 19:04:33;;;;;;;3.15;1.70;;;20.10;64.40;;;;;;5028516;28;20112;-51
2023/10/04 19:07:00;;;;;;;3.08;2.00;;;20.10;63.90;;;;;;5030511;28;20025;-53
2023/10/04 19:09:26;;;;;;;3.72;2.17;;;20.10;63.90;;;;;;5029942;28;20091;-52
2023/10/04 19:11:55;;;;;;;2.38;1.70;;;20.10;63.90;;;;;;5021980;28;20029;-49
2023/10/04 19:14:22;;;;;;;2.90;1.77;;;20.10;63.80;;;;;;5024430;28;21408;-51
2023/10/04 19:16:47;;;;;;;2.80;2.15;;;20.10;63.80;;;;;;5044544;28;20028;-51
2023/10/04 19:19:13;;;;;;;5.15;2.00;;;20.10;63.90;;;;;;5025875;28;20026;-51
2023/10/04 19:21:38;;;;;;;2.13;1.70;;;20.10;63.90;;;;;;5034584;28;20041;-52
2023/10/04 19:24:05;;;;;;;3.72;2.10;;;20.10;63.90;;;;;;5029343;28;20037;-47
2023/10/04 19:26:31;;;;;;;2.95;1.70;;;20.10;63.80;;;;;;5012137;28;20036;-51
2023/10/04 19:28:57;;;;;;;4.32;1.90;;;20.10;63.90;;;;;;5020921;28;20117;-51
2023/10/04 19:31:22;;;;;;;2.75;2.00;;;20.10;64.00;;;;;;5020226;28;20071;-49
2023/10/04 19:33:49;;;;;;;2.53;1.75;;;20.10;63.80;;;;;;5019096;28;20412;-52
2023/10/04 19:36:16;;;;;;;2.53;1.90;;;20.10;63.90;;;;;;5009348;28;20026;-51
2023/10/04 19:38:42;;;;;;;2.30;1.60;;;20.10;64.00;;;;;;5017935;28;20043;-52
2023/10/04 19:41:08;;;;;;;3.35;1.70;;;20.10;63.90;;;;;;5024223;28;20535;-52
2023/10/04 19:43:35;;;;;;;2.83;1.75;;;20.10;63.90;;;;;;5030460;28;20029;-52
2023/10/04 19:46:00;;;;;;;2.88;1.65;;;20.10;64.40;;;;;;5030097;28;20112;-50
2023/10/04 19:48:26;;;;;;;2.65;1.98;;;20.10;64.00;;;;;;5017502;28;20145;-53
2023/10/04 19:50:54;;;;;;;4.03;1.77;;;20.10;63.90;;;;;;5019451;28;20123;-53
2023/10/04 19:53:19;;;;;;;4.68;2.00;;;20.10;63.90;;;;;;5027073;28;20899;-50
2023/10/04 19:55:45;;;;;;;4.22;2.10;;;20.10;64.00;;;;;;5019582;28;20060;-50
2023/10/04 19:58:13;;;;;;;3.85;2.22;;;20.10;63.90;;;;;;5012891;28;20226;-47
2023/10/04 20:00:42;;;;;;;3.05;1.90;;;20.10;63.90;;;;;;5017646;28;20030;-50
2023/10/04 20:03:08;;;;;;;3.28;1.92;;;20.10;63.90;;;;;;5016520;28;20033;-47
2023/10/04 20:05:34;;;;;;;4.63;2.72;;;20.00;63.80;;;;;;5028546;28;20030;-50
2023/10/04 20:08:01;;;;;;;2.30;1.65;;;20.10;63.90;;;;;;5014384;28;20026;-49
2023/10/04 20:10:34;;;;;;;3.33;2.00;;;20.00;63.90;;;;;;5007714;28;20034;-59
2023/10/04 20:13:04;;;;;;;2.63;1.75;;;20.10;63.90;;;;;;5012929;28;20041;-50
2023/10/04 20:15:32;;;;;;;3.72;2.53;;;20.00;63.80;;;;;;5016301;28;20561;-49
2023/10/04 20:17:58;;;;;;;2.00;1.77;;;20.10;63.90;;;;;;5023684;28;20488;-48
2023/10/04 20:20:26;;;;;;;2.63;1.85;;;20.00;63.90;;;;;;5032753;28;20109;-52
2023/10/04 20:22:51;;;;;;;2.35;1.60;;;20.10;63.90;;;;;;5026675;28;20033;-51
2023/10/04 20:25:17;;;;;;;2.78;1.90;;;20.10;63.90;;;;;;5020267;28;20107;-49
2023/10/04 20:27:44;;;;;;;1.83;1.30;;;20.10;64.10;;;;;;5025245;28;20029;-51
2023/10/04 20:30:11;;;;;;;3.20;1.92;;;20.10;64.10;;;;;;5026541;28;20089;-48
2023/10/04 20:32:36;;;;;;;3.25;1.90;;;20.10;64.00;;;;;;5025043;28;20041;-50
2023/10/04 20:35:07;;;;;;;3.47;2.00;;;20.10;63.90;;;;;;5025530;28;20075;-51
2023/10/04 20:37:37;;;;;;;4.90;2.38;;;20.10;63.90;;;;;;5013731;28;20033;-52
2023/10/04 20:40:09;;;;;;;2.78;2.00;;;20.10;64.00;;;;;;4998143;28;20106;-51
2023/10/04 20:42:40;;;;;;;2.75;2.00;;;20.10;63.90;;;;;;5021284;28;20048;-49
2023/10/04 20:45:09;;;;;;;4.50;2.00;;;20.00;63.90;;;;;;5028179;28;20045;-51
2023/10/04 20:47:34;;;;;;;2.58;1.90;;;20.00;63.80;;;;;;5025875;28;20021;-51
2023/10/04 20:50:00;;;;;;;3.45;2.10;;;20.00;63.80;;;;;;5034852;28;20257;-51
2023/10/04 20:52:25;;;;;;;2.95;1.80;;;20.00;63.80;;;;;;5020453;28;20786;-49
2023/10/04 20:54:51;;;;;;;4.05;2.15;;;20.00;63.90;;;;;;5024106;28;20029;-48
2023/10/04 20:57:20;;;;;;;2.50;1.70;;;20.00;63.90;;;;;;5023776;28;20079;-49
2023/10/04 20:59:46;;;;;;;2.55;1.70;;;20.00;63.90;;;;;;5020634;28;20094;-50
2023/10/04 21:02:12;;;;;;;2.92;2.20;;;20.00;63.90;;;;;;5019144;28;20044;-52
2023/10/04 21:04:38;;;;;;;2.58;1.70;;;20.00;63.90;;;;;;5023577;28;20060;-49
2023/10/04 21:07:03;;;;;;;3.00;1.92;;;20.00;63.80;;;;;;5027261;28;20084;-51
2023/10/04 21:09:29;;;;;;;3.60;2.30;;;20.00;63.80;;;;;;5012166;28;20033;-49
2023/10/04 21:11:55;;;;;;;2.83;1.63;;;20.00;63.90;;;;;;5007977;28;20107;-50
2023/10/04 21:14:25;;;;;;;3.13;2.08;;;20.00;63.90;;;;;;5018487;28;20172;-52
2023/10/04 21:16:51;;;;;;;2.80;2.03;;;20.00;63.80;;;;;;5039814;28;20677;-49
2023/10/04 21:19:16;;;;;;;2.63;1.67;;;20.00;63.90;;;;;;5030520;28;20076;-53
2023/10/04 21:21:42;;;;;;;3.03;1.80;;;20.00;64.00;;;;;;5028094;28;20086;-52
2023/10/04 21:24:07;;;;;;;2.85;1.88;;;20.00;63.90;;;;;;5019060;28;20434;-50
2023/10/04 21:26:34;;;;;;;3.15;2.15;;;20.00;63.90;;;;;;5023295;28;20069;-49
2023/10/04 21:29:00;;;;;;;3.33;1.98;;;20.00;63.90;;;;;;5021103;28;20021;-48
2023/10/04 21:31:26;;;;;;;3.72;2.47;;;20.00;63.80;;;;;;5025658;28;20443;-49
2023/10/04 21:33:57;;;;;;;3.30;1.90;;;20.00;63.80;;;;;;5013161;28;20061;-50
2023/10/04 21:36:23;;;;;;;2.88;1.95;;;20.00;63.90;;;;;;5023468;28;20037;-50
2023/10/04 21:38:51;;;;;;;3.05;1.83;;;20.00;63.90;;;;;;5025680;28;20033;-49
2023/10/04 21:41:19;;;;;;;3.33;2.00;;;20.00;64.00;;;;;;5003977;28;20419;-52
2023/10/04 21:44:00;;;;;;;2.25;1.58;;;20.00;64.00;;;;;;5010054;28;20114;-51
2023/10/04 21:48:57;;;;;;;2.65;1.70;;;20.00;63.70;;;;;;5046543;28;20040;-53
2023/10/04 21:54:07;;;;;;;3.05;2.00;;;20.00;63.90;;;;;;5041260;28;20086;-54
2023/10/04 21:56:33;;;;;;;14.65;3.95;;;20.00;63.00;;;;;;5040896;28;20032;-58
2023/10/04 21:58:59;;;;;;;8.30;2.50;;;19.70;63.60;;;;;;5029648;28;20017;-57
2023/10/04 22:01:25;;;;;;;7.60;2.60;;;19.50;63.70;;;;;;5021481;28;20163;-58
2023/10/04 22:03:51;;;;;;;9.88;2.42;;;19.40;63.50;;;;;;5026399;28;20029;-57
2023/10/04 22:06:17;;;;;;;9.10;2.72;;;19.40;63.80;;;;;;5012335;28;20037;-56
2023/10/04 22:08:43;;;;;;;11.93;3.25;;;19.30;63.70;;;;;;5034558;28;20029;-56
2023/10/04 22:11:10;;;;;;;11.15;3.05;;;19.30;63.80;;;;;;5021961;28;20221;-57
2023/10/04 22:13:37;;;;;;;10.65;2.80;;;19.30;64.00;;;;;;5022237;28;20061;-57
2023/10/04 22:16:04;;;;;;;11.23;2.67;;;19.30;63.90;;;;;;5032607;28;20033;-54
2023/10/04 22:18:29;;;;;;;8.95;2.75;;;19.30;64.40;;;;;;5035719;28;20040;-57
2023/10/04 22:20:55;;;;;;;8.60;2.33;;;19.30;64.00;;;;;;5036524;28;20029;-57
2023/10/04 22:23:21;;;;;;;10.52;3.35;;;19.30;62.90;;;;;;5039910;28;20123;-56
2023/10/04 22:25:47;;;;;;;6.75;3.05;;;19.20;63.30;;;;;;5024785;28;20029;-58
2023/10/04 22:28:13;;;;;;;7.80;3.20;;;19.20;63.40;;;;;;5039804;28;20489;-54
2023/10/04 22:30:39;;;;;;;4.30;2.10;;;19.20;63.50;;;;;;5029658;28;20025;-55
2023/10/04 22:33:08;;;;;;;7.78;2.38;;;19.20;63.10;;;;;;5041192;28;20029;-57
2023/10/04 22:35:35;;;;;;;5.00;2.53;;;19.20;63.20;;;;;;5044089;28;20384;-57
2023/10/04 22:38:01;;;;;;;4.65;2.80;;;19.20;63.50;;;;;;5026800;28;20032;-59
2023/10/04 22:40:27;;;;;;;5.55;2.92;;;19.10;62.80;;;;;;5040903;28;20123;-58
2023/10/04 22:42:54;;;;;;;5.47;2.45;;;19.10;63.70;;;;;;5044375;28;20529;-59